sensor_id;sensor_type;location;lat;lon;timestamp;temperature;humidity
18041;DHT22;9145;48.588;9.250;2023-11-18T00:02:05;6.20;99.90
18041;DHT22;9145;48.588;9.250;2023-11-18T00:04:31;6.10;99.90
18041;DHT22;9145;48.588;9.250;2023-11-18T00:06:58;6.10;99.90
18041;DHT22;9145;48.588;9.250;2023-11-18T00:09:25;6.10;99.90
18041;DHT22;9145;48.588;9.250;2023-11-18T00:11:52;6.10;99.90
18041;DHT22;9145;48.588;9.250;2023-11-18T00:14:20;6.10;99.90
18041;DHT22;9145;48.588;9.250;2023-11-18T00:16:47;6.00;99.90
18041;DHT22;9145;48.588;9.250;2023-11-18T00:19:14;6.10;99.90
18041;DHT22;9145;48.588;9.250;2023-11-18T00:21:41;6.00;99.90
18041;DHT22;9145;48.588;9.250;2023-11-18T00:24:09;6.00;99.90
18041;DHT22;9145;48.588;9.250;2023-11-18T00:26:36;6.00;99.90
18041;DHT22;9145;48.588;9.250;2023-11-18T00:29:03;5.90;99.90
18041;DHT22;9145;48.588;9.250;2023-11-18T00:31:31;5.80;99.90
18041;DHT22;9145;48.588;9.250;2023-11-18T00:33:58;5.80;99.90
18041;DHT22;9145;48.588;9.250;2023-11-18T00:36:25;5.80;99.90
18041;DHT22;9145;48.588;9.250;2023-11-18T00:38:52;5.70;99.90
18041;DHT22;9145;48.588;9.250;2023-11-18T00:41:19;5.70;99.90
18041;DHT22;9145;48.588;9.250;2023-11-18T00:43:46;5.70;99.90
18041;DHT22;9145;48.588;9.250;2023-11-18T00:46:13;5.70;99.90
18041;DHT22;9145;48.588;9.250;2023-11-18T00:48:41;5.60;99.90
18041;DHT22;9145;48.588;9.250;2023-11-18T00:51:08;5.60;99.90
18041;DHT22;9145;48.588;9.250;2023-11-18T00:53:35;5.60;99.90
18041;DHT22;9145;48.588;9.250;2023-11-18T00:56:02;5.60;99.90
18041;DHT22;9145;48.588;9.250;2023-11-18T00:58:33;5.70;99.90
18041;DHT22;9145;48.588;9.250;2023-11-18T01:01:02;5.70;99.90
18041;DHT22;9145;48.588;9.250;2023-11-18T01:03:32;5.70;99.90
18041;DHT22;9145;48.588;9.250;2023-11-18T01:06:00;5.80;99.90
18041;DHT22;9145;48.588;9.250;2023-11-18T01:08:27;5.80;99.90
18041;DHT22;9145;48.588;9.250;2023-11-18T01:10:54;5.80;99.90
18041;DHT22;9145;48.588;9.250;2023-11-18T01:13:21;5.90;99.90
18041;DHT22;9145;48.588;9.250;2023-11-18T01:15:48;5.80;99.90
18041;DHT22;9145;48.588;9.250;2023-11-18T01:18:15;5.90;99.90
18041;DHT22;9145;48.588;9.250;2023-11-18T01:20:43;5.90;99.90
18041;DHT22;9145;48.588;9.250;2023-11-18T01:23:11;5.90;99.90
18041;DHT22;9145;48.588;9.250;2023-11-18T01:25:38;5.90;99.90
18041;DHT22;9145;48.588;9.250;2023-11-18T01:28:05;6.00;99.90
18041;DHT22;9145;48.588;9.250;2023-11-18T01:30:32;6.00;99.90
18041;DHT22;9145;48.588;9.250;2023-11-18T01:32:59;6.00;99.90
18041;DHT22;9145;48.588;9.250;2023-11-18T01:35:26;6.00;99.90
18041;DHT22;9145;48.588;9.250;2023-11-18T01:37:53;6.10;99.90
18041;DHT22;9145;48.588;9.250;2023-11-18T01:40:22;6.10;99.90
18041;DHT22;9145;48.588;9.250;2023-11-18T01:42:49;6.10;99.90
18041;DHT22;9145;48.588;9.250;2023-11-18T01:45:16;6.10;99.90
18041;DHT22;9145;48.588;9.250;2023-11-18T01:47:44;6.10;99.90
18041;DHT22;9145;48.588;9.250;2023-11-18T01:50:12;6.10;99.90
18041;DHT22;9145;48.588;9.250;2023-11-18T01:52:40;6.20;99.90
18041;DHT22;9145;48.588;9.250;2023-11-18T01:55:08;6.20;99.90
18041;DHT22;9145;48.588;9.250;2023-11-18T01:57:37;6.20;99.90
18041;DHT22;9145;48.588;9.250;2023-11-18T02:00:06;6.20;99.90
18041;DHT22;9145;48.588;9.250;2023-11-18T02:02:36;6.20;99.90
18041;DHT22;9145;48.588;9.250;2023-11-18T02:05:04;6.20;99.90
18041;DHT22;9145;48.588;9.250;2023-11-18T02:07:32;6.20;99.90
18041;DHT22;9145;48.588;9.250;2023-11-18T02:10:01;6.20;99.90
18041;DHT22;9145;48.588;9.250;2023-11-18T02:12:33;6.20;99.90
18041;DHT22;9145;48.588;9.250;2023-11-18T02:15:06;6.20;99.90
18041;DHT22;9145;48.588;9.250;2023-11-18T02:17:38;6.20;99.90
18041;DHT22;9145;48.588;9.250;2023-11-18T02:20:06;6.20;99.90
18041;DHT22;9145;48.588;9.250;2023-11-18T02:22:40;6.10;99.90
18041;DHT22;9145;48.588;9.250;2023-11-18T02:25:09;6.10;99.90
18041;DHT22;9145;48.588;9.250;2023-11-18T02:27:38;6.10;99.90
18041;DHT22;9145;48.588;9.250;2023-11-18T02:30:06;6.10;99.90
18041;DHT22;9145;48.588;9.250;2023-11-18T02:32:41;6.20;99.90
18041;DHT22;9145;48.588;9.250;2023-11-18T02:35:17;6.10;99.90
18041;DHT22;9145;48.588;9.250;2023-11-18T02:37:47;6.20;99.90
18041;DHT22;9145;48.588;9.250;2023-11-18T02:40:19;6.10;99.90
18041;DHT22;9145;48.588;9.250;2023-11-18T02:42:49;6.10;99.90
18041;DHT22;9145;48.588;9.250;2023-11-18T02:45:18;6.10;99.90
18041;DHT22;9145;48.588;9.250;2023-11-18T02:47:46;6.10;99.90
18041;DHT22;9145;48.588;9.250;2023-11-18T02:50:12;6.10;99.90
18041;DHT22;9145;48.588;9.250;2023-11-18T02:52:39;6.10;99.90
18041;DHT22;9145;48.588;9.250;2023-11-18T02:55:06;6.00;99.90
18041;DHT22;9145;48.588;9.250;2023-11-18T02:57:34;6.00;99.90
18041;DHT22;9145;48.588;9.250;2023-11-18T03:00:02;6.10;99.90
18041;DHT22;9145;48.588;9.250;2023-11-18T03:02:30;6.10;99.90
18041;DHT22;9145;48.588;9.250;2023-11-18T03:04:57;6.10;99.90
18041;DHT22;9145;48.588;9.250;2023-11-18T03:07:24;6.00;99.90
18041;DHT22;9145;48.588;9.250;2023-11-18T03:09:52;6.00;99.90
18041;DHT22;9145;48.588;9.250;2023-11-18T03:12:21;6.00;99.90
18041;DHT22;9145;48.588;9.250;2023-11-18T03:14:48;6.00;99.90
18041;DHT22;9145;48.588;9.250;2023-11-18T03:17:16;6.00;99.90
18041;DHT22;9145;48.588;9.250;2023-11-18T03:19:43;6.00;99.90
18041;DHT22;9145;48.588;9.250;2023-11-18T03:22:10;5.90;99.90
18041;DHT22;9145;48.588;9.250;2023-11-18T03:24:38;5.90;99.90
18041;DHT22;9145;48.588;9.250;2023-11-18T03:27:05;5.90;99.90
18041;DHT22;9145;48.588;9.250;2023-11-18T03:29:34;5.80;99.90
18041;DHT22;9145;48.588;9.250;2023-11-18T03:32:01;5.80;99.90
18041;DHT22;9145;48.588;9.250;2023-11-18T03:34:32;5.80;99.90
18041;DHT22;9145;48.588;9.250;2023-11-18T03:36:59;5.80;99.90
18041;DHT22;9145;48.588;9.250;2023-11-18T03:39:26;5.70;99.90
18041;DHT22;9145;48.588;9.250;2023-11-18T03:41:53;5.70;99.90
18041;DHT22;9145;48.588;9.250;2023-11-18T03:44:22;5.70;99.90
18041;DHT22;9145;48.588;9.250;2023-11-18T03:46:50;5.70;99.90
18041;DHT22;9145;48.588;9.250;2023-11-18T03:49:17;5.70;99.90
18041;DHT22;9145;48.588;9.250;2023-11-18T03:51:46;5.70;99.90
18041;DHT22;9145;48.588;9.250;2023-11-18T03:54:13;5.70;99.90
18041;DHT22;9145;48.588;9.250;2023-11-18T03:56:40;5.60;99.90
18041;DHT22;9145;48.588;9.250;2023-11-18T03:59:07;5.60;99.90
18041;DHT22;9145;48.588;9.250;2023-11-18T04:01:34;5.50;99.90
18041;DHT22;9145;48.588;9.250;2023-11-18T04:04:01;5.50;99.90
18041;DHT22;9145;48.588;9.250;2023-11-18T04:06:29;5.50;99.90
18041;DHT22;9145;48.588;9.250;2023-11-18T04:08:58;5.40;99.90
18041;DHT22;9145;48.588;9.250;2023-11-18T04:11:25;5.40;99.90
18041;DHT22;9145;48.588;9.250;2023-11-18T04:13:51;5.40;99.90
18041;DHT22;9145;48.588;9.250;2023-11-18T04:16:18;5.40;99.90
18041;DHT22;9145;48.588;9.250;2023-11-18T04:18:46;5.40;99.90
18041;DHT22;9145;48.588;9.250;2023-11-18T04:21:13;5.40;99.90
18041;DHT22;9145;48.588;9.250;2023-11-18T04:23:42;5.40;99.90
18041;DHT22;9145;48.588;9.250;2023-11-18T04:26:13;5.50;99.90
18041;DHT22;9145;48.588;9.250;2023-11-18T04:28:40;5.50;99.90
18041;DHT22;9145;48.588;9.250;2023-11-18T04:31:07;5.60;99.90
18041;DHT22;9145;48.588;9.250;2023-11-18T04:33:34;5.60;99.90
18041;DHT22;9145;48.588;9.250;2023-11-18T04:36:00;5.60;99.90
18041;DHT22;9145;48.588;9.250;2023-11-18T04:38:28;5.70;99.90
18041;DHT22;9145;48.588;9.250;2023-11-18T04:40:55;5.70;99.90
18041;DHT22;9145;48.588;9.250;2023-11-18T04:43:23;5.70;99.90
18041;DHT22;9145;48.588;9.250;2023-11-18T04:45:50;5.70;99.90
18041;DHT22;9145;48.588;9.250;2023-11-18T04:48:18;5.60;99.90
18041;DHT22;9145;48.588;9.250;2023-11-18T04:50:47;5.60;99.90
18041;DHT22;9145;48.588;9.250;2023-11-18T04:53:13;5.40;99.90
18041;DHT22;9145;48.588;9.250;2023-11-18T04:55:40;5.40;99.90
18041;DHT22;9145;48.588;9.250;2023-11-18T04:58:08;5.30;99.90
18041;DHT22;9145;48.588;9.250;2023-11-18T05:00:36;5.30;99.90
18041;DHT22;9145;48.588;9.250;2023-11-18T05:03:04;5.30;99.90
18041;DHT22;9145;48.588;9.250;2023-11-18T05:05:35;5.30;99.90
18041;DHT22;9145;48.588;9.250;2023-11-18T05:08:03;5.30;99.90
18041;DHT22;9145;48.588;9.250;2023-11-18T05:10:32;5.30;99.90
18041;DHT22;9145;48.588;9.250;2023-11-18T05:12:58;5.20;99.90
18041;DHT22;9145;48.588;9.250;2023-11-18T05:15:25;5.10;99.90
18041;DHT22;9145;48.588;9.250;2023-11-18T05:17:54;5.00;99.90
18041;DHT22;9145;48.588;9.250;2023-11-18T05:20:21;5.00;99.90
18041;DHT22;9145;48.588;9.250;2023-11-18T05:22:48;5.00;99.90
18041;DHT22;9145;48.588;9.250;2023-11-18T05:25:14;5.00;99.90
18041;DHT22;9145;48.588;9.250;2023-11-18T05:27:41;5.10;99.90
18041;DHT22;9145;48.588;9.250;2023-11-18T05:30:10;5.20;99.90
18041;DHT22;9145;48.588;9.250;2023-11-18T05:32:37;5.20;99.90
18041;DHT22;9145;48.588;9.250;2023-11-18T05:35:07;5.30;99.90
18041;DHT22;9145;48.588;9.250;2023-11-18T05:37:37;5.30;99.90
18041;DHT22;9145;48.588;9.250;2023-11-18T05:40:07;5.40;99.90
18041;DHT22;9145;48.588;9.250;2023-11-18T05:42:35;5.50;99.90
18041;DHT22;9145;48.588;9.250;2023-11-18T05:45:04;5.50;99.90
18041;DHT22;9145;48.588;9.250;2023-11-18T05:47:32;5.50;99.90
18041;DHT22;9145;48.588;9.250;2023-11-18T05:49:59;5.50;99.90
18041;DHT22;9145;48.588;9.250;2023-11-18T05:52:28;5.50;99.90
18041;DHT22;9145;48.588;9.250;2023-11-18T05:54:54;5.50;99.90
18041;DHT22;9145;48.588;9.250;2023-11-18T05:57:21;5.50;99.90
18041;DHT22;9145;48.588;9.250;2023-11-18T05:59:48;5.50;99.90
18041;DHT22;9145;48.588;9.250;2023-11-18T06:02:15;5.40;99.90
18041;DHT22;9145;48.588;9.250;2023-11-18T06:04:44;5.40;99.90
18041;DHT22;9145;48.588;9.250;2023-11-18T06:07:11;5.40;99.90
18041;DHT22;9145;48.588;9.250;2023-11-18T06:09:40;5.40;99.90
18041;DHT22;9145;48.588;9.250;2023-11-18T06:12:07;5.40;99.90
18041;DHT22;9145;48.588;9.250;2023-11-18T06:14:35;5.40;99.90
18041;DHT22;9145;48.588;9.250;2023-11-18T06:17:03;5.40;99.90
18041;DHT22;9145;48.588;9.250;2023-11-18T06:19:29;5.40;99.90
18041;DHT22;9145;48.588;9.250;2023-11-18T06:21:56;5.40;99.90
18041;DHT22;9145;48.588;9.250;2023-11-18T06:24:23;5.40;99.90
18041;DHT22;9145;48.588;9.250;2023-11-18T06:26:51;5.40;99.90
18041;DHT22;9145;48.588;9.250;2023-11-18T06:29:18;5.40;99.90
18041;DHT22;9145;48.588;9.250;2023-11-18T06:31:45;5.40;99.90
18041;DHT22;9145;48.588;9.250;2023-11-18T06:34:12;5.40;99.90
18041;DHT22;9145;48.588;9.250;2023-11-18T06:36:39;5.30;99.90
18041;DHT22;9145;48.588;9.250;2023-11-18T06:39:06;5.30;99.90
18041;DHT22;9145;48.588;9.250;2023-11-18T06:41:33;5.20;99.90
18041;DHT22;9145;48.588;9.250;2023-11-18T06:44:04;5.10;99.90
18041;DHT22;9145;48.588;9.250;2023-11-18T06:46:38;5.00;99.90
18041;DHT22;9145;48.588;9.250;2023-11-18T06:49:05;5.00;99.90
18041;DHT22;9145;48.588;9.250;2023-11-18T06:51:34;4.90;99.90
18041;DHT22;9145;48.588;9.250;2023-11-18T06:54:03;4.90;99.90
18041;DHT22;9145;48.588;9.250;2023-11-18T06:56:35;4.90;99.90
18041;DHT22;9145;48.588;9.250;2023-11-18T06:59:04;4.80;99.90
18041;DHT22;9145;48.588;9.250;2023-11-18T07:01:32;4.90;99.90
18041;DHT22;9145;48.588;9.250;2023-11-18T07:03:59;4.90;99.90
18041;DHT22;9145;48.588;9.250;2023-11-18T07:06:25;4.90;99.90
18041;DHT22;9145;48.588;9.250;2023-11-18T07:08:54;4.90;99.90
18041;DHT22;9145;48.588;9.250;2023-11-18T07:11:21;5.00;99.90
18041;DHT22;9145;48.588;9.250;2023-11-18T07:13:48;4.90;99.90
18041;DHT22;9145;48.588;9.250;2023-11-18T07:16:23;4.90;99.90
18041;DHT22;9145;48.588;9.250;2023-11-18T07:18:50;5.00;99.90
18041;DHT22;9145;48.588;9.250;2023-11-18T07:21:17;5.00;99.90
18041;DHT22;9145;48.588;9.250;2023-11-18T07:23:43;5.10;99.90
18041;DHT22;9145;48.588;9.250;2023-11-18T07:26:10;5.10;99.90
18041;DHT22;9145;48.588;9.250;2023-11-18T07:28:39;5.20;99.90
18041;DHT22;9145;48.588;9.250;2023-11-18T07:31:06;5.30;99.90
18041;DHT22;9145;48.588;9.250;2023-11-18T07:33:35;5.30;99.90
18041;DHT22;9145;48.588;9.250;2023-11-18T07:36:02;5.40;99.90
18041;DHT22;9145;48.588;9.250;2023-11-18T07:38:31;5.40;99.90
18041;DHT22;9145;48.588;9.250;2023-11-18T07:41:00;5.50;99.90
18041;DHT22;9145;48.588;9.250;2023-11-18T07:43:28;5.60;99.90
18041;DHT22;9145;48.588;9.250;2023-11-18T07:45:55;5.60;99.90
18041;DHT22;9145;48.588;9.250;2023-11-18T07:48:22;5.70;99.90
18041;DHT22;9145;48.588;9.250;2023-11-18T07:50:50;5.70;99.90
18041;DHT22;9145;48.588;9.250;2023-11-18T07:53:17;5.90;99.90
18041;DHT22;9145;48.588;9.250;2023-11-18T07:55:44;5.90;99.90
18041;DHT22;9145;48.588;9.250;2023-11-18T07:58:13;6.00;99.90
18041;DHT22;9145;48.588;9.250;2023-11-18T08:00:40;6.10;99.90
18041;DHT22;9145;48.588;9.250;2023-11-18T08:03:08;6.10;99.90
18041;DHT22;9145;48.588;9.250;2023-11-18T08:05:37;6.10;99.90
18041;DHT22;9145;48.588;9.250;2023-11-18T08:08:06;6.10;99.90
18041;DHT22;9145;48.588;9.250;2023-11-18T08:10:34;6.10;99.90
18041;DHT22;9145;48.588;9.250;2023-11-18T08:13:03;6.10;99.90
18041;DHT22;9145;48.588;9.250;2023-11-18T08:15:30;6.10;99.90
18041;DHT22;9145;48.588;9.250;2023-11-18T08:17:57;6.00;99.90
18041;DHT22;9145;48.588;9.250;2023-11-18T08:20:24;6.00;99.90
18041;DHT22;9145;48.588;9.250;2023-11-18T08:22:51;6.00;99.90
18041;DHT22;9145;48.588;9.250;2023-11-18T08:25:20;6.00;99.90
18041;DHT22;9145;48.588;9.250;2023-11-18T08:27:47;6.10;99.90
18041;DHT22;9145;48.588;9.250;2023-11-18T08:30:15;6.10;99.90
18041;DHT22;9145;48.588;9.250;2023-11-18T08:32:44;6.10;99.90
18041;DHT22;9145;48.588;9.250;2023-11-18T08:35:12;6.00;99.90
18041;DHT22;9145;48.588;9.250;2023-11-18T08:37:40;6.00;99.90
18041;DHT22;9145;48.588;9.250;2023-11-18T08:40:08;6.00;99.90
18041;DHT22;9145;48.588;9.250;2023-11-18T08:42:42;6.00;99.90
18041;DHT22;9145;48.588;9.250;2023-11-18T08:45:14;6.00;99.90
18041;DHT22;9145;48.588;9.250;2023-11-18T08:47:43;6.10;99.90
18041;DHT22;9145;48.588;9.250;2023-11-18T08:50:10;6.10;99.90
18041;DHT22;9145;48.588;9.250;2023-11-18T08:52:38;6.10;99.90
18041;DHT22;9145;48.588;9.250;2023-11-18T08:55:09;6.20;99.90
18041;DHT22;9145;48.588;9.250;2023-11-18T08:57:44;6.30;99.90
18041;DHT22;9145;48.588;9.250;2023-11-18T09:00:25;6.30;99.90
18041;DHT22;9145;48.588;9.250;2023-11-18T09:03:10;6.40;99.90
18041;DHT22;9145;48.588;9.250;2023-11-18T09:05:43;6.40;99.90
18041;DHT22;9145;48.588;9.250;2023-11-18T09:08:23;6.40;99.90
18041;DHT22;9145;48.588;9.250;2023-11-18T09:10:50;6.50;99.90
18041;DHT22;9145;48.588;9.250;2023-11-18T09:13:21;6.60;99.90
18041;DHT22;9145;48.588;9.250;2023-11-18T09:15:48;6.70;99.90
18041;DHT22;9145;48.588;9.250;2023-11-18T09:18:15;6.80;99.90
18041;DHT22;9145;48.588;9.250;2023-11-18T09:20:43;6.80;99.90
18041;DHT22;9145;48.588;9.250;2023-11-18T09:23:11;6.80;99.90
18041;DHT22;9145;48.588;9.250;2023-11-18T09:25:38;6.80;99.90
18041;DHT22;9145;48.588;9.250;2023-11-18T09:28:06;6.80;99.90
18041;DHT22;9145;48.588;9.250;2023-11-18T09:30:37;6.80;99.90
18041;DHT22;9145;48.588;9.250;2023-11-18T09:33:17;6.80;99.90
18041;DHT22;9145;48.588;9.250;2023-11-18T09:35:52;6.90;99.90
18041;DHT22;9145;48.588;9.250;2023-11-18T09:38:24;7.00;99.90
18041;DHT22;9145;48.588;9.250;2023-11-18T09:40:53;7.00;99.90
18041;DHT22;9145;48.588;9.250;2023-11-18T09:43:20;6.90;99.90
18041;DHT22;9145;48.588;9.250;2023-11-18T09:45:54;6.90;99.90
18041;DHT22;9145;48.588;9.250;2023-11-18T09:48:21;7.00;99.90
18041;DHT22;9145;48.588;9.250;2023-11-18T09:50:52;7.10;99.90
18041;DHT22;9145;48.588;9.250;2023-11-18T09:53:19;7.20;99.90
18041;DHT22;9145;48.588;9.250;2023-11-18T09:55:57;7.30;99.90
18041;DHT22;9145;48.588;9.250;2023-11-18T09:58:32;7.40;99.90
18041;DHT22;9145;48.588;9.250;2023-11-18T10:01:08;7.50;99.90
18041;DHT22;9145;48.588;9.250;2023-11-18T10:03:40;7.50;99.90
18041;DHT22;9145;48.588;9.250;2023-11-18T10:06:08;7.60;99.90
18041;DHT22;9145;48.588;9.250;2023-11-18T10:08:35;7.70;99.90
18041;DHT22;9145;48.588;9.250;2023-11-18T10:11:04;7.70;99.90
18041;DHT22;9145;48.588;9.250;2023-11-18T10:13:35;7.90;99.90
18041;DHT22;9145;48.588;9.250;2023-11-18T10:16:08;7.90;99.90
18041;DHT22;9145;48.588;9.250;2023-11-18T10:18:35;8.10;99.90
18041;DHT22;9145;48.588;9.250;2023-11-18T10:21:02;8.20;99.90
18041;DHT22;9145;48.588;9.250;2023-11-18T10:23:33;8.20;99.90
18041;DHT22;9145;48.588;9.250;2023-11-18T10:26:03;8.20;99.90
18041;DHT22;9145;48.588;9.250;2023-11-18T10:28:31;8.20;99.90
18041;DHT22;9145;48.588;9.250;2023-11-18T10:30:59;8.20;99.90
18041;DHT22;9145;48.588;9.250;2023-11-18T10:33:30;8.20;99.90
18041;DHT22;9145;48.588;9.250;2023-11-18T10:35:58;8.30;99.90
18041;DHT22;9145;48.588;9.250;2023-11-18T10:38:29;8.40;99.90
18041;DHT22;9145;48.588;9.250;2023-11-18T10:40:57;8.50;99.90
18041;DHT22;9145;48.588;9.250;2023-11-18T10:43:26;8.50;99.90
18041;DHT22;9145;48.588;9.250;2023-11-18T10:46:04;8.50;99.90
18041;DHT22;9145;48.588;9.250;2023-11-18T10:48:39;8.50;99.90
18041;DHT22;9145;48.588;9.250;2023-11-18T10:51:08;8.40;99.90
18041;DHT22;9145;48.588;9.250;2023-11-18T10:53:37;8.50;99.90
18041;DHT22;9145;48.588;9.250;2023-11-18T10:56:05;8.60;99.90
18041;DHT22;9145;48.588;9.250;2023-11-18T10:58:35;8.60;99.90
18041;DHT22;9145;48.588;9.250;2023-11-18T11:01:06;8.60;99.90
18041;DHT22;9145;48.588;9.250;2023-11-18T11:03:53;8.70;99.90
18041;DHT22;9145;48.588;9.250;2023-11-18T11:06:23;8.80;99.90
18041;DHT22;9145;48.588;9.250;2023-11-18T11:08:50;8.70;99.90
18041;DHT22;9145;48.588;9.250;2023-11-18T11:11:20;8.80;99.90
18041;DHT22;9145;48.588;9.250;2023-11-18T11:13:49;8.70;99.90
18041;DHT22;9145;48.588;9.250;2023-11-18T11:16:19;8.70;99.90
18041;DHT22;9145;48.588;9.250;2023-11-18T11:18:48;8.70;99.90
18041;DHT22;9145;48.588;9.250;2023-11-18T11:21:25;8.80;99.90
18041;DHT22;9145;48.588;9.250;2023-11-18T11:23:57;8.80;99.90
18041;DHT22;9145;48.588;9.250;2023-11-18T11:26:34;8.80;99.90
18041;DHT22;9145;48.588;9.250;2023-11-18T11:29:18;8.80;99.90
18041;DHT22;9145;48.588;9.250;2023-11-18T11:32:02;8.90;99.90
18041;DHT22;9145;48.588;9.250;2023-11-18T11:34:39;8.90;99.90
18041;DHT22;9145;48.588;9.250;2023-11-18T11:37:11;8.90;99.90
18041;DHT22;9145;48.588;9.250;2023-11-18T11:39:41;9.00;99.90
18041;DHT22;9145;48.588;9.250;2023-11-18T11:42:13;9.00;99.90
18041;DHT22;9145;48.588;9.250;2023-11-18T11:44:43;9.00;99.90
18041;DHT22;9145;48.588;9.250;2023-11-18T11:47:11;9.00;99.90
18041;DHT22;9145;48.588;9.250;2023-11-18T11:49:47;9.10;99.90
18041;DHT22;9145;48.588;9.250;2023-11-18T11:52:22;9.10;99.90
18041;DHT22;9145;48.588;9.250;2023-11-18T11:54:58;9.00;99.90
18041;DHT22;9145;48.588;9.250;2023-11-18T11:57:28;9.00;99.90
18041;DHT22;9145;48.588;9.250;2023-11-18T11:59:55;9.00;99.90
18041;DHT22;9145;48.588;9.250;2023-11-18T12:02:23;9.10;99.90
18041;DHT22;9145;48.588;9.250;2023-11-18T12:04:56;9.10;99.90
18041;DHT22;9145;48.588;9.250;2023-11-18T12:07:26;9.10;99.90
18041;DHT22;9145;48.588;9.250;2023-11-18T12:09:57;9.10;99.90
18041;DHT22;9145;48.588;9.250;2023-11-18T12:12:26;9.00;99.90
18041;DHT22;9145;48.588;9.250;2023-11-18T12:14:55;9.00;99.90
18041;DHT22;9145;48.588;9.250;2023-11-18T12:17:23;9.10;99.90
18041;DHT22;9145;48.588;9.250;2023-11-18T12:19:54;9.10;99.90
18041;DHT22;9145;48.588;9.250;2023-11-18T12:22:25;9.10;99.90
18041;DHT22;9145;48.588;9.250;2023-11-18T12:27:58;9.30;99.90
18041;DHT22;9145;48.588;9.250;2023-11-18T12:30:40;9.30;99.90
18041;DHT22;9145;48.588;9.250;2023-11-18T12:33:18;9.30;99.90
18041;DHT22;9145;48.588;9.250;2023-11-18T12:36:26;9.30;99.90
18041;DHT22;9145;48.588;9.250;2023-11-18T12:39:32;9.30;99.90
18041;DHT22;9145;48.588;9.250;2023-11-18T12:42:06;9.20;99.90
18041;DHT22;9145;48.588;9.250;2023-11-18T12:44:40;9.20;99.90
18041;DHT22;9145;48.588;9.250;2023-11-18T12:47:14;9.20;99.90
18041;DHT22;9145;48.588;9.250;2023-11-18T12:49:44;9.20;99.90
18041;DHT22;9145;48.588;9.250;2023-11-18T12:52:16;9.10;99.90
18041;DHT22;9145;48.588;9.250;2023-11-18T12:54:45;9.10;99.90
18041;DHT22;9145;48.588;9.250;2023-11-18T12:57:16;9.10;99.90
18041;DHT22;9145;48.588;9.250;2023-11-18T12:59:43;9.20;99.90
18041;DHT22;9145;48.588;9.250;2023-11-18T13:02:11;9.10;99.90
18041;DHT22;9145;48.588;9.250;2023-11-18T13:04:45;9.10;99.90
18041;DHT22;9145;48.588;9.250;2023-11-18T13:07:13;9.00;99.90
18041;DHT22;9145;48.588;9.250;2023-11-18T13:09:40;9.10;99.90
18041;DHT22;9145;48.588;9.250;2023-11-18T13:12:11;9.10;99.90
18041;DHT22;9145;48.588;9.250;2023-11-18T13:14:41;9.10;99.90
18041;DHT22;9145;48.588;9.250;2023-11-18T13:17:09;9.00;99.90
18041;DHT22;9145;48.588;9.250;2023-11-18T13:19:37;8.90;99.90
18041;DHT22;9145;48.588;9.250;2023-11-18T13:22:05;8.80;99.90
18041;DHT22;9145;48.588;9.250;2023-11-18T13:24:33;8.80;99.90
18041;DHT22;9145;48.588;9.250;2023-11-18T13:27:00;8.70;99.90
18041;DHT22;9145;48.588;9.250;2023-11-18T13:29:31;8.70;99.90
18041;DHT22;9145;48.588;9.250;2023-11-18T13:32:00;8.70;99.90
18041;DHT22;9145;48.588;9.250;2023-11-18T13:34:30;8.60;99.90
18041;DHT22;9145;48.588;9.250;2023-11-18T13:36:58;8.70;99.90
18041;DHT22;9145;48.588;9.250;2023-11-18T13:39:25;8.60;99.90
18041;DHT22;9145;48.588;9.250;2023-11-18T13:41:53;8.60;99.90
18041;DHT22;9145;48.588;9.250;2023-11-18T13:44:34;8.60;99.90
18041;DHT22;9145;48.588;9.250;2023-11-18T13:47:04;8.50;99.90
18041;DHT22;9145;48.588;9.250;2023-11-18T13:49:32;8.50;99.90
18041;DHT22;9145;48.588;9.250;2023-11-18T13:52:00;8.40;99.90
18041;DHT22;9145;48.588;9.250;2023-11-18T13:54:28;8.40;99.90
18041;DHT22;9145;48.588;9.250;2023-11-18T13:56:55;8.40;99.90
18041;DHT22;9145;48.588;9.250;2023-11-18T13:59:24;8.40;99.90
18041;DHT22;9145;48.588;9.250;2023-11-18T14:01:53;8.30;99.90
18041;DHT22;9145;48.588;9.250;2023-11-18T14:04:27;8.30;99.90
18041;DHT22;9145;48.588;9.250;2023-11-18T14:06:57;8.30;99.90
18041;DHT22;9145;48.588;9.250;2023-11-18T14:09:25;8.30;99.90
18041;DHT22;9145;48.588;9.250;2023-11-18T14:11:52;8.30;99.90
18041;DHT22;9145;48.588;9.250;2023-11-18T14:14:20;8.30;99.90
18041;DHT22;9145;48.588;9.250;2023-11-18T14:16:47;8.20;99.90
18041;DHT22;9145;48.588;9.250;2023-11-18T14:19:16;8.30;99.90
18041;DHT22;9145;48.588;9.250;2023-11-18T14:21:44;8.30;99.90
18041;DHT22;9145;48.588;9.250;2023-11-18T14:24:11;8.20;99.90
18041;DHT22;9145;48.588;9.250;2023-11-18T14:26:38;8.20;99.90
18041;DHT22;9145;48.588;9.250;2023-11-18T14:29:07;8.20;99.90
18041;DHT22;9145;48.588;9.250;2023-11-18T14:31:34;8.20;99.90
18041;DHT22;9145;48.588;9.250;2023-11-18T14:34:01;8.30;99.90
18041;DHT22;9145;48.588;9.250;2023-11-18T14:36:29;8.20;99.90
18041;DHT22;9145;48.588;9.250;2023-11-18T14:38:56;8.20;99.90
18041;DHT22;9145;48.588;9.250;2023-11-18T14:41:24;8.20;99.90
18041;DHT22;9145;48.588;9.250;2023-11-18T14:43:52;8.30;99.90
18041;DHT22;9145;48.588;9.250;2023-11-18T14:46:19;8.30;99.90
18041;DHT22;9145;48.588;9.250;2023-11-18T14:48:46;8.30;99.90
18041;DHT22;9145;48.588;9.250;2023-11-18T14:51:14;8.30;99.90
18041;DHT22;9145;48.588;9.250;2023-11-18T14:53:42;8.30;99.90
18041;DHT22;9145;48.588;9.250;2023-11-18T14:56:10;8.30;99.90
18041;DHT22;9145;48.588;9.250;2023-11-18T14:58:36;8.30;99.90
18041;DHT22;9145;48.588;9.250;2023-11-18T15:01:04;8.30;99.90
18041;DHT22;9145;48.588;9.250;2023-11-18T15:03:32;8.30;99.90
18041;DHT22;9145;48.588;9.250;2023-11-18T15:05:59;8.30;99.90
18041;DHT22;9145;48.588;9.250;2023-11-18T15:08:26;8.30;99.90
18041;DHT22;9145;48.588;9.250;2023-11-18T15:10:54;8.30;99.90
18041;DHT22;9145;48.588;9.250;2023-11-18T15:13:24;8.20;99.90
18041;DHT22;9145;48.588;9.250;2023-11-18T15:15:51;8.20;99.90
18041;DHT22;9145;48.588;9.250;2023-11-18T15:18:18;8.20;99.90
18041;DHT22;9145;48.588;9.250;2023-11-18T15:20:45;8.20;99.90
18041;DHT22;9145;48.588;9.250;2023-11-18T15:23:13;8.10;99.90
18041;DHT22;9145;48.588;9.250;2023-11-18T15:25:41;8.10;99.90
18041;DHT22;9145;48.588;9.250;2023-11-18T15:28:09;8.10;99.90
18041;DHT22;9145;48.588;9.250;2023-11-18T15:30:37;8.10;99.90
18041;DHT22;9145;48.588;9.250;2023-11-18T15:33:05;8.10;99.90
18041;DHT22;9145;48.588;9.250;2023-11-18T15:35:33;8.10;99.90
18041;DHT22;9145;48.588;9.250;2023-11-18T15:38:03;8.10;99.90
18041;DHT22;9145;48.588;9.250;2023-11-18T15:40:31;8.10;99.90
18041;DHT22;9145;48.588;9.250;2023-11-18T15:42:57;8.10;99.90
18041;DHT22;9145;48.588;9.250;2023-11-18T15:45:26;8.00;99.90
18041;DHT22;9145;48.588;9.250;2023-11-18T15:47:54;8.10;99.90
18041;DHT22;9145;48.588;9.250;2023-11-18T15:50:20;8.10;99.90
18041;DHT22;9145;48.588;9.250;2023-11-18T15:52:48;8.10;99.90
18041;DHT22;9145;48.588;9.250;2023-11-18T15:55:17;8.10;99.90
18041;DHT22;9145;48.588;9.250;2023-11-18T15:57:48;8.10;99.90
18041;DHT22;9145;48.588;9.250;2023-11-18T16:00:19;8.10;99.90
18041;DHT22;9145;48.588;9.250;2023-11-18T16:02:48;8.10;99.90
18041;DHT22;9145;48.588;9.250;2023-11-18T16:05:16;8.10;99.90
18041;DHT22;9145;48.588;9.250;2023-11-18T16:07:44;8.10;99.90
18041;DHT22;9145;48.588;9.250;2023-11-18T16:10:11;8.10;99.90
18041;DHT22;9145;48.588;9.250;2023-11-18T16:12:44;8.10;99.90
18041;DHT22;9145;48.588;9.250;2023-11-18T16:15:12;8.10;99.90
18041;DHT22;9145;48.588;9.250;2023-11-18T16:17:39;8.10;99.90